Time;durP1;ratioP1;P1;durP2;ratioP2;P2;SDS_P1;SDS_P2;PMS_P1;PMS_P2;Temp;Humidity;BMP_temperature;BMP_pressure;BME280_temperature;BME280_humidity;BME280_pressure;Samples;Min_cycle;Max_cycle;Signal;HPM_P1;HPM_P2
2022/04/04 00:00:49;;;;;;;6.03;5.67;;;3.50;1.00;;;;;;6265837;28;20330;-55
2022/04/04 00:03:52;;;;;;;6.17;5.67;;;3.40;1.00;;;;;;6283920;28;20552;-53
2022/04/04 00:06:55;;;;;;;5.90;5.60;;;3.40;1.00;;;;;;6284960;28;20233;-53
2022/04/04 00:09:57;;;;;;;5.97;5.60;;;3.50;1.00;;;;;;6268916;28;20237;-53
2022/04/04 00:13:02;;;;;;;5.50;5.30;;;3.40;1.00;;;;;;6285841;28;20310;-57
2022/04/04 00:16:07;;;;;;;6.10;5.70;;;3.30;1.00;;;;;;6285846;28;20328;-53
2022/04/04 00:19:10;;;;;;;6.43;5.83;;;3.30;1.00;;;;;;6285405;28;20236;-53
2022/04/04 00:22:12;;;;;;;6.47;5.80;;;3.30;1.00;;;;;;6277005;28;20266;-54
2022/04/04 00:25:15;;;;;;;6.33;6.13;;;3.40;1.00;;;;;;6284345;28;20489;-53
2022/04/04 00:28:19;;;;;;;5.90;5.70;;;3.30;1.00;;;;;;6284011;28;20456;-54
2022/04/04 00:31:22;;;;;;;6.70;6.37;;;3.30;1.00;;;;;;6262103;28;20822;-53
2022/04/04 00:34:25;;;;;;;6.27;5.87;;;3.30;1.00;;;;;;6269135;28;20299;-54
2022/04/04 00:37:28;;;;;;;6.50;6.20;;;3.40;1.00;;;;;;6284279;28;20229;-54
2022/04/04 00:40:31;;;;;;;6.63;6.03;;;3.60;1.00;;;;;;6284160;28;20229;-54
2022/04/04 00:43:35;;;;;;;6.37;5.93;;;3.40;1.00;;;;;;6246765;28;20288;-54
2022/04/04 00:46:41;;;;;;;7.13;5.93;;;3.20;1.00;;;;;;6238201;28;20241;-54
2022/04/04 00:49:44;;;;;;;6.43;5.93;;;3.40;1.00;;;;;;6257246;28;20746;-54
2022/04/04 00:52:46;;;;;;;7.10;6.60;;;3.30;1.00;;;;;;6256463;28;20827;-53
2022/04/04 00:55:49;;;;;;;7.17;6.67;;;2.80;1.00;;;;;;6238472;28;20961;-53
2022/04/04 00:58:53;;;;;;;6.00;5.70;;;3.40;1.00;;;;;;6234732;28;20317;-55
2022/04/04 01:01:56;;;;;;;6.93;6.27;;;3.40;1.00;;;;;;6235841;28;20284;-54
2022/04/04 01:04:59;;;;;;;6.70;6.20;;;2.60;1.00;;;;;;6242178;28;20301;-53
2022/04/04 01:08:02;;;;;;;6.87;6.47;;;3.40;1.00;;;;;;6259518;28;20244;-54
2022/04/04 01:11:05;;;;;;;7.10;6.43;;;3.10;1.00;;;;;;6262459;28;20678;-53
2022/04/04 01:14:09;;;;;;;7.50;7.00;;;3.30;1.00;;;;;;6259392;28;20902;-53
2022/04/04 01:17:12;;;;;;;6.20;5.80;;;3.30;1.00;;;;;;6251957;28;20348;-54
2022/04/04 01:20:15;;;;;;;7.13;6.70;;;3.30;1.00;;;;;;6235892;28;20479;-55
2022/04/04 01:23:23;;;;;;;7.00;6.53;;;3.40;1.00;;;;;;6245531;28;20302;-54
2022/04/04 01:26:28;;;;;;;6.70;6.40;;;3.10;1.00;;;;;;6253945;28;20241;-53
2022/04/04 01:29:30;;;;;;;7.17;6.67;;;3.40;1.00;;;;;;6235269;28;20235;-53
2022/04/04 01:32:34;;;;;;;7.70;7.20;;;3.30;1.00;;;;;;6238193;28;20253;-55
2022/04/04 01:35:38;;;;;;;7.47;6.80;;;3.20;1.00;;;;;;6242119;28;20246;-53
2022/04/04 01:38:41;;;;;;;7.30;6.80;;;3.40;1.00;;;;;;6256262;28;20373;-54
2022/04/04 01:41:45;;;;;;;9.17;6.90;;;3.50;1.00;;;;;;6262690;28;20464;-51
2022/04/04 01:44:48;;;;;;;7.80;7.20;;;3.20;1.00;;;;;;6252369;28;20315;-53
2022/04/04 01:47:51;;;;;;;7.57;6.97;;;3.40;1.00;;;;;;6241701;28;20328;-52
2022/04/04 01:50:53;;;;;;;7.87;7.03;;;3.10;1.00;;;;;;6257997;28;20367;-54
2022/04/04 01:53:57;;;;;;;6.90;6.60;;;3.40;1.00;;;;;;6237773;28;20731;-53
2022/04/04 01:57:02;;;;;;;7.93;7.43;;;3.20;1.00;;;;;;6233377;28;20938;-53
2022/04/04 02:00:06;;;;;;;7.57;7.17;;;3.20;1.00;;;;;;6234939;28;20238;-53
2022/04/04 02:03:09;;;;;;;7.50;7.20;;;3.20;1.00;;;;;;6241108;28;20377;-53
2022/04/04 02:06:13;;;;;;;7.50;7.10;;;3.10;1.00;;;;;;6241917;28;20238;-53
2022/04/04 02:09:16;;;;;;;7.80;7.40;;;2.80;1.00;;;;;;6254771;28;20234;-53
2022/04/04 02:12:20;;;;;;;8.30;7.60;;;3.00;1.00;;;;;;6241484;28;20340;-53
2022/04/04 02:15:23;;;;;;;8.20;7.60;;;3.10;1.00;;;;;;6233049;28;20678;-53
2022/04/04 02:18:26;;;;;;;7.73;7.33;;;2.80;1.00;;;;;;6238047;28;20262;-53
2022/04/04 02:21:29;;;;;;;8.47;7.80;;;2.90;1.00;;;;;;6231465;28;20404;-55
2022/04/04 02:24:32;;;;;;;8.17;7.47;;;3.10;1.00;;;;;;6257588;28;20260;-53
2022/04/04 02:27:36;;;;;;;7.80;7.20;;;3.00;1.00;;;;;;6263904;28;20256;-55
2022/04/04 02:30:39;;;;;;;7.80;7.40;;;2.80;1.00;;;;;;6267864;28;20311;-54
2022/04/04 02:33:42;;;;;;;8.93;8.33;;;2.90;1.00;;;;;;6258386;28;20250;-54
2022/04/04 02:36:45;;;;;;;8.70;8.00;;;3.00;1.00;;;;;;6247326;28;20361;-54
2022/04/04 02:39:47;;;;;;;8.47;7.87;;;3.00;1.00;;;;;;6261078;28;20406;-55
2022/04/04 02:42:52;;;;;;;8.00;7.50;;;2.80;1.00;;;;;;6256256;28;20691;-53
2022/04/04 02:45:55;;;;;;;7.70;7.30;;;3.00;1.00;;;;;;6242143;28;20377;-53
2022/04/04 02:48:58;;;;;;;8.70;7.93;;;2.90;1.00;;;;;;6253815;28;20726;-55
2022/04/04 02:52:01;;;;;;;7.93;7.50;;;2.80;1.00;;;;;;6252399;28;20245;-53
2022/04/04 02:56:28;;;;;;;8.33;7.70;;;3.00;1.00;;;;;;6232476;28;20367;-53
2022/04/04 02:58:27;;;;;;;9.17;8.57;;;2.90;1.00;;;;;;6241966;28;20254;-53
2022/04/04 03:01:30;;;;;;;8.53;7.93;;;3.00;1.00;;;;;;6237437;28;20234;-53
2022/04/04 03:04:34;;;;;;;8.83;8.23;;;2.90;1.00;;;;;;6250129;28;20712;-53
2022/04/04 03:07:37;;;;;;;9.23;8.33;;;2.90;1.00;;;;;;6250947;28;20974;-53
2022/04/04 03:10:39;;;;;;;8.70;8.10;;;3.20;1.00;;;;;;6262751;28;20324;-55
2022/04/04 03:13:43;;;;;;;8.80;8.10;;;3.10;1.00;;;;;;6259503;28;20317;-54
2022/04/04 03:16:46;;;;;;;8.93;8.33;;;2.80;1.00;;;;;;6238707;28;20377;-54
2022/04/04 03:19:49;;;;;;;9.17;8.47;;;3.00;1.00;;;;;;6238437;28;20235;-53
2022/04/04 03:22:54;;;;;;;8.93;8.17;;;3.10;1.00;;;;;;6241978;28;20242;-54
2022/04/04 03:25:57;;;;;;;8.20;7.70;;;3.00;1.00;;;;;;6253457;28;20325;-53
2022/04/04 03:29:01;;;;;;;9.07;8.43;;;3.00;1.00;;;;;;6261268;28;20771;-53
2022/04/04 03:32:04;;;;;;;9.33;8.63;;;2.90;1.00;;;;;;6243632;28;20349;-53
2022/04/04 03:35:09;;;;;;;9.40;8.50;;;2.70;1.00;;;;;;6262471;28;20698;-54
2022/04/04 03:38:13;;;;;;;9.30;8.43;;;2.80;1.00;;;;;;6259702;28;20320;-53
2022/04/04 03:41:16;;;;;;;8.97;8.37;;;2.90;1.00;;;;;;6254997;28;20406;-53
2022/04/04 03:44:20;;;;;;;9.13;8.43;;;2.70;1.00;;;;;;6257450;28;20248;-54
2022/04/04 03:47:23;;;;;;;8.90;8.30;;;3.10;1.00;;;;;;6262969;28;20234;-54
2022/04/04 03:50:27;;;;;;;9.80;9.00;;;2.80;1.00;;;;;;6263278;28;20233;-52
2022/04/04 03:53:30;;;;;;;9.10;8.37;;;2.90;1.00;;;;;;6261320;28;20230;-53
2022/04/04 03:56:32;;;;;;;9.10;8.40;;;2.70;1.00;;;;;;6255298;28;20324;-54
2022/04/04 03:59:41;;;;;;;8.30;7.70;;;3.00;1.00;;;;;;6273400;28;20719;-55
2022/04/04 04:02:44;;;;;;;9.03;8.30;;;2.60;1.00;;;;;;6275356;28;20237;-53
2022/04/04 04:05:47;;;;;;;9.33;8.53;;;2.70;1.00;;;;;;6259783;28;20336;-53
2022/04/04 04:08:50;;;;;;;9.17;8.40;;;2.90;1.00;;;;;;6264918;28;20827;-53
2022/04/04 04:11:54;;;;;;;8.80;8.10;;;2.90;1.00;;;;;;6257920;28;20240;-52
2022/04/04 04:14:59;;;;;;;8.63;8.00;;;2.70;1.00;;;;;;6267629;28;20661;-54
2022/04/04 04:18:01;;;;;;;9.40;8.60;;;2.90;1.00;;;;;;6264818;28;20237;-53
2022/04/04 04:21:05;;;;;;;8.60;8.03;;;2.70;1.00;;;;;;6265102;28;20237;-53
2022/04/04 04:24:08;;;;;;;9.27;8.57;;;2.90;1.00;;;;;;6258549;28;20240;-54
2022/04/04 04:27:12;;;;;;;8.73;8.10;;;2.70;1.00;;;;;;6260341;28;20749;-53
2022/04/04 04:30:17;;;;;;;9.33;8.53;;;3.10;1.00;;;;;;6258515;28;20314;-52
2022/04/04 04:33:22;;;;;;;8.73;8.23;;;2.80;1.00;;;;;;6258395;28;20713;-54
2022/04/04 04:36:25;;;;;;;8.90;8.20;;;2.90;1.00;;;;;;6255217;28;20266;-53
2022/04/04 04:39:28;;;;;;;9.07;8.30;;;2.60;1.00;;;;;;6256459;28;20317;-55
2022/04/04 04:42:33;;;;;;;8.90;8.40;;;2.60;1.00;;;;;;6261186;28;20240;-53
2022/04/04 04:45:37;;;;;;;8.10;7.70;;;2.70;1.00;;;;;;6253074;28;20234;-53
2022/04/04 04:48:40;;;;;;;8.83;8.23;;;2.60;1.00;;;;;;6263119;28;20316;-53
2022/04/04 04:51:43;;;;;;;8.27;7.60;;;2.80;1.00;;;;;;6256821;28;20231;-53
2022/04/04 04:54:46;;;;;;;8.87;8.17;;;2.70;1.00;;;;;;6279014;28;20353;-54
2022/04/04 04:57:50;;;;;;;8.60;8.10;;;2.80;1.00;;;;;;6285596;28;20593;-52
2022/04/04 05:00:54;;;;;;;9.20;8.33;;;2.80;1.00;;;;;;6296052;28;20257;-53
2022/04/04 05:03:57;;;;;;;8.40;7.83;;;2.70;1.00;;;;;;6292536;28;20614;-54
2022/04/04 05:06:59;;;;;;;9.50;8.83;;;2.90;1.00;;;;;;6293429;28;20335;-53
2022/04/04 05:10:03;;;;;;;8.23;7.83;;;2.70;1.00;;;;;;6289010;28;20766;-53
2022/04/04 05:13:06;;;;;;;9.27;8.67;;;2.60;1.00;;;;;;6289211;28;20322;-53
2022/04/04 05:16:12;;;;;;;8.20;7.77;;;2.70;1.00;;;;;;6300491;28;20318;-53
2022/04/04 05:19:17;;;;;;;9.93;8.17;;;2.70;1.00;;;;;;6279597;28;20577;-51
2022/04/04 05:22:20;;;;;;;8.87;8.17;;;3.10;1.00;;;;;;6294593;28;20240;-52
2022/04/04 05:25:23;;;;;;;9.37;8.53;;;2.70;1.00;;;;;;6287832;28;20237;-53
2022/04/04 05:28:26;;;;;;;9.10;8.50;;;3.20;1.00;;;;;;6292215;28;20233;-54
2022/04/04 05:31:30;;;;;;;9.23;8.53;;;2.90;1.00;;;;;;6288357;28;20225;-52
2022/04/04 05:34:33;;;;;;;9.20;8.53;;;3.10;1.00;;;;;;6285459;28;20708;-53
2022/04/04 05:37:36;;;;;;;9.90;9.10;;;3.20;1.00;;;;;;6282281;28;20808;-54
2022/04/04 05:40:39;;;;;;;9.27;8.67;;;3.30;1.00;;;;;;6284164;28;20293;-53
2022/04/04 05:43:42;;;;;;;9.00;8.30;;;3.20;1.00;;;;;;6286483;28;20245;-54
2022/04/04 05:46:46;;;;;;;8.97;8.47;;;3.00;1.00;;;;;;6283290;28;20327;-54
2022/04/04 05:49:49;;;;;;;9.20;8.40;;;3.10;1.00;;;;;;6294346;28;20757;-53
2022/04/04 05:52:52;;;;;;;9.43;8.70;;;3.40;1.00;;;;;;6291031;28;20370;-53
2022/04/04 05:55:55;;;;;;;10.07;9.13;;;3.10;1.00;;;;;;6291495;28;20268;-58
2022/04/04 05:58:57;;;;;;;9.77;8.97;;;3.20;1.00;;;;;;6288559;28;20782;-54
2022/04/04 06:02:01;;;;;;;9.50;9.00;;;3.20;1.00;;;;;;6297008;28;20243;-54
2022/04/04 06:05:06;;;;;;;10.23;9.47;;;3.20;1.00;;;;;;6290465;28;20652;-54
2022/04/04 06:08:09;;;;;;;9.47;8.87;;;3.60;1.00;;;;;;6291593;28;21030;-54
2022/04/04 06:11:12;;;;;;;9.90;9.10;;;3.70;1.00;;;;;;6296742;28;20236;-53
2022/04/04 06:14:14;;;;;;;10.57;9.77;;;3.50;1.00;;;;;;6296243;28;20313;-54
2022/04/04 06:17:19;;;;;;;10.43;9.67;;;3.50;1.00;;;;;;6289663;28;20323;-54
2022/04/04 06:20:22;;;;;;;10.03;9.43;;;3.70;1.00;;;;;;6298125;28;20662;-54
2022/04/04 06:23:25;;;;;;;10.70;9.80;;;3.80;1.00;;;;;;6284625;28;20287;-54
2022/04/04 06:26:30;;;;;;;12.70;9.27;;;4.00;1.00;;;;;;6295617;28;20240;-54
2022/04/04 06:29:33;;;;;;;10.37;9.47;;;4.10;1.00;;;;;;6287906;28;20322;-52
2022/04/04 06:32:40;;;;;;;11.00;10.20;;;4.00;1.00;;;;;;6289333;28;20233;-52
2022/04/04 06:35:43;;;;;;;11.53;10.53;;;4.10;1.00;;;;;;6293676;28;20237;-52
2022/04/04 06:38:46;;;;;;;11.17;10.20;;;4.50;1.00;;;;;;6294655;28;20611;-54
2022/04/04 06:41:50;;;;;;;11.97;10.87;;;4.30;1.00;;;;;;6289437;28;20723;-54
2022/04/04 06:44:55;;;;;;;11.70;10.63;;;4.60;1.00;;;;;;6288495;28;20236;-52
2022/04/04 06:47:59;;;;;;;11.53;10.53;;;4.70;1.00;;;;;;6291738;28;20721;-54
2022/04/04 06:51:02;;;;;;;11.97;10.97;;;4.90;1.00;;;;;;6299791;28;20644;-53
2022/04/04 06:54:07;;;;;;;12.10;11.27;;;5.10;1.00;;;;;;6298156;28;20268;-54
2022/04/04 06:57:10;;;;;;;11.80;11.00;;;5.10;1.00;;;;;;6290474;28;20311;-55
2022/04/04 07:00:15;;;;;;;11.73;10.83;;;5.10;1.00;;;;;;6289031;28;20335;-53
2022/04/04 07:03:19;;;;;;;11.60;10.60;;;5.10;1.00;;;;;;6288221;28;20452;-52
2022/04/04 07:06:23;;;;;;;12.97;11.87;;;5.10;1.00;;;;;;6291508;28;20348;-53
2022/04/04 07:09:26;;;;;;;12.10;11.00;;;5.10;1.00;;;;;;6291075;28;20237;-53
2022/04/04 07:12:29;;;;;;;12.53;11.47;;;5.10;1.00;;;;;;6288152;28;20626;-55
2022/04/04 07:15:31;;;;;;;13.13;12.13;;;5.20;1.00;;;;;;6291510;28;20233;-54
2022/04/04 07:18:35;;;;;;;14.00;12.27;;;5.10;1.00;;;;;;6291046;28;20229;-52
2022/04/04 07:21:38;;;;;;;13.20;11.97;;;5.00;1.00;;;;;;6285602;28;20457;-51
2022/04/04 07:24:41;;;;;;;13.27;12.10;;;5.30;1.00;;;;;;6295187;28;20390;-54
2022/04/04 07:27:46;;;;;;;12.87;11.80;;;5.50;1.00;;;;;;6289009;28;20312;-52
2022/04/04 07:30:50;;;;;;;13.23;12.17;;;5.50;1.00;;;;;;6290900;28;20744;-60
2022/04/04 07:33:54;;;;;;;13.00;11.90;;;5.60;1.00;;;;;;6293061;28;20233;-54
2022/04/04 07:36:57;;;;;;;13.80;12.40;;;5.40;1.00;;;;;;6286006;28;20284;-53
2022/04/04 07:39:59;;;;;;;13.97;12.77;;;5.70;1.00;;;;;;6296799;28;20727;-53
2022/04/04 07:43:02;;;;;;;14.17;12.97;;;5.70;1.00;;;;;;6286815;28;20261;-53
2022/04/04 07:46:05;;;;;;;13.63;12.53;;;5.40;1.00;;;;;;6288001;28;20307;-54
2022/04/04 07:49:10;;;;;;;14.57;13.37;;;5.50;1.00;;;;;;6291706;28;20816;-54
2022/04/04 07:52:12;;;;;;;17.47;12.77;;;5.70;1.00;;;;;;6299271;28;20316;-53
2022/04/04 07:55:16;;;;;;;14.40;13.03;;;5.70;1.00;;;;;;6293586;28;20378;-54
2022/04/04 07:58:18;;;;;;;14.33;13.07;;;5.80;1.00;;;;;;6290597;28;20233;-54
2022/04/04 08:01:21;;;;;;;15.37;13.00;;;6.00;1.00;;;;;;6286826;28;20246;-54
2022/04/04 08:04:29;;;;;;;13.73;12.63;;;5.90;1.00;;;;;;6288249;28;20407;-57
2022/04/04 08:07:32;;;;;;;13.17;12.07;;;6.10;1.00;;;;;;6285650;28;20851;-54
2022/04/04 08:10:35;;;;;;;15.30;13.87;;;6.20;1.00;;;;;;6290797;28;20259;-54
2022/04/04 08:13:42;;;;;;;14.23;13.13;;;6.30;1.00;;;;;;6289920;28;20328;-54
2022/04/04 08:16:45;;;;;;;13.33;12.23;;;6.30;1.00;;;;;;6287281;28;20233;-52
2022/04/04 08:19:50;;;;;;;13.73;12.43;;;6.30;1.00;;;;;;6274873;28;20234;-53
2022/04/04 08:22:53;;;;;;;13.37;12.33;;;6.40;1.00;;;;;;6296630;28;20319;-54
2022/04/04 08:25:55;;;;;;;13.40;12.20;;;6.40;1.00;;;;;;6296423;28;20343;-53
2022/04/04 08:28:58;;;;;;;12.83;11.87;;;6.40;1.00;;;;;;6282057;28;20320;-54
2022/04/04 08:32:01;;;;;;;13.43;12.33;;;6.50;1.00;;;;;;6284667;28;20275;-53
2022/04/04 08:35:07;;;;;;;15.37;12.00;;;6.60;1.00;;;;;;6280449;28;20229;-53
2022/04/04 08:38:10;;;;;;;13.80;12.60;;;6.70;1.00;;;;;;6295147;28;20236;-54
2022/04/04 08:41:12;;;;;;;12.77;11.77;;;6.70;1.00;;;;;;6290853;28;20236;-55
2022/04/04 08:44:16;;;;;;;12.67;11.50;;;6.70;1.00;;;;;;6292242;28;20371;-55
2022/04/04 08:47:20;;;;;;;12.87;11.80;;;6.60;1.00;;;;;;6281557;28;20231;-52
2022/04/04 08:50:25;;;;;;;12.23;11.33;;;6.60;1.00;;;;;;6291130;28;20382;-55
2022/04/04 08:53:29;;;;;;;11.43;10.57;;;6.60;1.00;;;;;;6278253;28;20244;-53
2022/04/04 08:56:31;;;;;;;12.70;11.60;;;6.80;1.00;;;;;;6291802;28;20855;-54
2022/04/04 08:59:34;;;;;;;12.37;11.27;;;6.80;1.00;;;;;;6283269;28;21002;-53
2022/04/04 09:02:37;;;;;;;12.10;11.20;;;6.90;1.00;;;;;;6287324;28;20347;-54
2022/04/04 09:05:53;;;;;;;11.07;10.23;;;7.00;1.00;;;;;;6287826;28;20256;-54
2022/04/04 09:08:59;;;;;;;11.13;10.13;;;6.90;1.00;;;;;;6291592;28;20540;-54
2022/04/04 09:12:09;;;;;;;14.13;10.20;;;7.00;1.00;;;;;;6280189;28;20267;-54
2022/04/04 09:15:12;;;;;;;12.40;11.23;;;7.10;1.00;;;;;;6284008;28;20261;-53
2022/04/04 09:18:15;;;;;;;11.50;10.50;;;7.10;1.00;;;;;;6284831;28;20328;-54
2022/04/04 09:21:34;;;;;;;11.80;10.80;;;7.20;1.00;;;;;;6295349;28;20288;-54
2022/04/04 09:24:45;;;;;;;10.90;10.00;;;7.10;1.00;;;;;;6291353;28;20239;-54
2022/04/04 09:27:47;;;;;;;10.97;10.07;;;7.20;1.00;;;;;;6288042;28;20304;-54
2022/04/04 09:31:06;;;;;;;11.27;10.33;;;7.20;1.00;;;;;;6281277;28;20229;-55
2022/04/04 09:34:09;;;;;;;10.13;9.37;;;7.40;1.00;;;;;;6280017;28;20308;-53
2022/04/04 09:37:16;;;;;;;10.67;9.93;;;7.60;1.00;;;;;;6285732;28;20250;-53
2022/04/04 09:40:23;;;;;;;32.13;11.50;;;7.80;1.00;;;;;;6285997;28;20237;-53
2022/04/04 09:43:26;;;;;;;11.03;10.23;;;7.90;1.00;;;;;;6285265;28;20228;-53
2022/04/04 09:46:34;;;;;;;10.60;9.90;;;7.80;1.00;;;;;;6279630;28;20283;-53
2022/04/04 09:49:39;;;;;;;13.17;10.57;;;7.60;1.00;;;;;;6288857;28;20308;-58
2022/04/04 09:52:52;;;;;;;12.03;10.83;;;7.60;1.00;;;;;;6284183;28;20307;-55
2022/04/04 09:55:56;;;;;;;12.73;10.63;;;7.50;1.00;;;;;;6284267;28;20312;-52
2022/04/04 09:59:00;;;;;;;12.70;11.53;;;7.70;1.00;;;;;;6280269;28;20476;-52
2022/04/04 10:02:04;;;;;;;16.20;10.73;;;7.80;1.00;;;;;;6278793;28;20817;-53
2022/04/04 10:05:08;;;;;;;11.67;10.47;;;7.90;1.00;;;;;;6281714;28;20286;-54
2022/04/04 10:08:15;;;;;;;12.73;10.80;;;8.10;1.00;;;;;;6276924;28;20347;-53
2022/04/04 10:11:18;;;;;;;18.07;11.10;;;8.20;1.00;;;;;;6290814;28;20324;-53
2022/04/04 10:14:21;;;;;;;13.57;10.77;;;8.20;1.00;;;;;;6286959;28;20264;-54
2022/04/04 10:17:24;;;;;;;11.97;10.73;;;8.30;1.00;;;;;;6288309;28;20222;-55
2022/04/04 10:20:27;;;;;;;11.17;10.37;;;8.40;1.00;;;;;;6291838;28;20722;-55
2022/04/04 10:23:32;;;;;;;14.13;11.37;;;8.40;1.00;;;;;;6281446;28;20643;-53
2022/04/04 10:26:36;;;;;;;19.43;11.20;;;8.50;1.00;;;;;;6283727;28;20795;-53
2022/04/04 10:29:42;;;;;;;11.10;10.13;;;8.50;1.00;;;;;;6281500;28;20229;-54
2022/04/04 10:32:52;;;;;;;12.97;10.47;;;8.40;1.00;;;;;;6283629;28;20359;-54
2022/04/04 10:36:04;;;;;;;11.50;10.50;;;8.30;1.00;;;;;;6284410;28;20339;-54
2022/04/04 10:39:10;;;;;;;17.40;10.90;;;8.40;1.00;;;;;;6279454;28;20324;-53
2022/04/04 10:42:26;;;;;;;15.10;10.90;;;8.40;1.00;;;;;;6288379;28;20562;-54
2022/04/04 10:45:55;;;;;;;11.43;10.40;;;8.30;1.00;;;;;;6286109;28;20238;-54
2022/04/04 10:49:01;;;;;;;16.73;10.30;;;8.30;1.00;;;;;;6283103;28;20232;-54
2022/04/04 10:52:04;;;;;;;11.53;10.40;;;8.20;1.00;;;;;;6280610;28;20366;-56
2022/04/04 10:55:30;;;;;;;14.77;10.67;;;8.10;1.00;;;;;;6287845;28;20351;-53
2022/04/04 10:58:33;;;;;;;12.53;10.10;;;8.20;1.00;;;;;;6285873;28;20241;-53
2022/04/04 11:01:36;;;;;;;11.23;9.73;;;8.40;1.00;;;;;;6286785;28;20257;-54
2022/04/04 11:09:01;;;;;;;10.50;9.50;;;8.50;1.00;;;;;;6276370;28;20230;-54
2022/04/04 11:12:12;;;;;;;10.13;9.20;;;8.30;1.00;;;;;;6289213;28;20233;-53
2022/04/04 11:15:15;;;;;;;12.63;9.33;;;8.40;1.00;;;;;;6281172;28;20372;-53
2022/04/04 11:18:18;;;;;;;10.20;9.13;;;8.40;1.00;;;;;;6290140;28;20238;-56
2022/04/04 11:21:40;;;;;;;16.90;9.53;;;8.50;99.90;;;;;;6289185;28;20629;-56
2022/04/04 11:24:44;;;;;;;12.70;8.30;;;8.30;99.90;;;;;;6292485;28;20252;-53
2022/04/04 11:27:49;;;;;;;10.63;8.23;;;8.20;1.00;;;;;;6296409;28;20601;-53
2022/04/04 11:30:53;;;;;;;13.40;8.70;;;8.10;99.90;;;;;;6290441;28;20236;-54
2022/04/04 11:33:57;;;;;;;9.40;8.40;;;8.20;99.90;;;;;;6289628;28;20733;-55
2022/04/04 11:37:01;;;;;;;12.17;8.60;;;8.20;1.00;;;;;;6280582;28;20433;-55
2022/04/04 11:40:08;;;;;;;8.50;7.87;;;8.30;99.90;;;;;;6288643;28;20259;-57
2022/04/04 11:43:13;;;;;;;9.90;7.57;;;8.30;1.00;;;;;;6284894;28;20236;-53
2022/04/04 11:46:19;;;;;;;13.73;7.77;;;8.30;1.00;;;;;;6293867;28;20470;-55
2022/04/04 11:49:22;;;;;;;12.20;7.17;;;8.20;1.00;;;;;;6290732;28;20400;-53
2022/04/04 11:52:26;;;;;;;9.37;7.20;;;8.20;1.00;;;;;;6292450;28;21101;-55
2022/04/04 11:55:31;;;;;;;7.33;6.63;;;8.10;1.00;;;;;;6283428;28;20237;-55
2022/04/04 11:58:37;;;;;;;17.50;7.03;;;8.00;1.00;;;;;;6289977;28;20226;-52
2022/04/04 12:01:40;;;;;;;13.03;6.93;;;8.20;1.00;;;;;;6289778;28;20245;-52
2022/04/04 12:04:45;;;;;;;7.83;6.67;;;8.00;1.00;;;;;;6284949;28;20236;-54
2022/04/04 12:07:48;;;;;;;11.13;7.07;;;7.90;1.00;;;;;;6286628;28;20245;-53
2022/04/04 12:10:51;;;;;;;6.33;5.87;;;7.90;1.00;;;;;;6291288;28;20693;-54
2022/04/04 12:13:57;;;;;;;7.10;6.50;;;7.90;1.00;;;;;;6289648;28;20275;-55
2022/04/04 12:17:00;;;;;;;10.87;5.70;;;7.80;1.00;;;;;;6300487;28;20312;-54
2022/04/04 12:20:10;;;;;;;10.50;6.57;;;7.70;1.00;;;;;;6288730;28;20779;-52
2022/04/04 12:26:36;;;;;;;7.67;6.40;;;7.70;1.00;;;;;;6291629;28;20359;-57
2022/04/04 12:29:43;;;;;;;9.43;6.10;;;7.60;1.00;;;;;;6290322;28;20245;-55
2022/04/04 12:32:46;;;;;;;19.80;6.73;;;7.30;1.00;;;;;;6289880;28;20939;-54
2022/04/04 12:35:49;;;;;;;7.57;6.80;;;7.10;1.00;;;;;;6285750;28;20240;-54
2022/04/04 12:38:58;;;;;;;8.13;6.40;;;6.80;1.00;;;;;;6284430;28;20308;-54
2022/04/04 12:42:07;;;;;;;12.50;7.23;;;6.70;1.00;;;;;;6285878;28;20302;-54
2022/04/04 12:45:11;;;;;;;7.63;7.00;;;6.60;1.00;;;;;;6298375;28;20328;-55
2022/04/04 12:48:14;;;;;;;10.50;7.60;;;6.40;1.00;;;;;;6290723;28;20256;-53
2022/04/04 12:51:29;;;;;;;8.57;7.77;;;6.30;1.00;;;;;;6287908;28;20240;-54
2022/04/04 12:54:34;;;;;;;12.77;8.63;;;5.90;1.00;;;;;;6296052;28;20260;-54
2022/04/04 12:57:36;;;;;;;10.10;8.47;;;5.80;1.00;;;;;;6294905;28;20702;-54
2022/04/04 13:00:40;;;;;;;12.30;8.93;;;5.90;1.00;;;;;;6282688;28;20233;-53
2022/04/04 13:03:47;;;;;;;10.40;9.10;;;5.70;1.00;;;;;;6293448;28;20235;-53
2022/04/04 13:06:50;;;;;;;12.10;9.23;;;5.50;1.00;;;;;;6288031;28;20817;-56
2022/04/04 13:09:54;;;;;;;10.50;9.57;;;5.50;1.00;;;;;;6285891;28;20229;-54
2022/04/04 13:13:09;;;;;;;12.53;10.70;;;5.40;1.00;;;;;;6293439;28;20248;-54
2022/04/04 13:16:32;;;;;;;12.70;10.43;;;5.20;1.00;;;;;;6289377;28;20234;-54
2022/04/04 13:19:34;;;;;;;12.43;11.43;;;5.10;1.00;;;;;;6290714;28;20241;-54
2022/04/04 13:22:37;;;;;;;16.40;11.23;;;5.00;1.00;;;;;;6295666;28;20588;-53
2022/04/04 13:25:40;;;;;;;12.63;11.30;;;5.00;1.00;;;;;;6294232;28;20374;-54
2022/04/04 13:28:43;;;;;;;15.40;11.53;;;4.50;1.00;;;;;;6288321;28;20295;-54
2022/04/04 13:31:48;;;;;;;13.23;12.10;;;4.40;1.00;;;;;;6295340;28;20252;-53
2022/04/04 13:34:51;;;;;;;14.87;13.37;;;4.50;1.00;;;;;;6286227;28;20816;-53
2022/04/04 13:37:53;;;;;;;14.40;13.10;;;4.20;1.00;;;;;;6284240;28;20709;-55
2022/04/04 13:40:56;;;;;;;15.73;14.03;;;3.80;1.00;;;;;;6288146;28;20556;-54
2022/04/04 13:44:00;;;;;;;16.13;14.43;;;3.90;1.00;;;;;;6285866;28;20765;-54
2022/04/04 13:47:04;;;;;;;15.30;13.90;;;3.80;1.00;;;;;;6275302;28;20465;-53
2022/04/04 13:50:08;;;;;;;17.33;15.50;;;3.80;1.00;;;;;;6280014;28;20555;-55
2022/04/04 13:53:12;;;;;;;16.57;15.07;;;3.70;1.00;;;;;;6287268;28;20239;-56
2022/04/04 13:56:14;;;;;;;15.43;13.90;;;3.10;1.00;;;;;;6286840;28;20253;-55
2022/04/04 13:59:18;;;;;;;15.37;13.97;;;3.70;1.00;;;;;;6290699;28;20529;-58
2022/04/04 14:02:22;;;;;;;17.57;15.83;;;3.30;1.00;;;;;;6282494;28;20272;-56
2022/04/04 14:05:25;;;;;;;18.20;15.53;;;3.70;1.00;;;;;;6288807;28;20237;-55
2022/04/04 14:08:49;;;;;;;17.97;16.27;;;3.50;1.00;;;;;;6283647;28;20685;-52
2022/04/04 14:11:51;;;;;;;17.73;15.93;;;3.70;1.00;;;;;;6293762;28;20375;-54
2022/04/04 14:14:54;;;;;;;18.57;16.50;;;3.80;1.00;;;;;;6297864;28;20286;-54
2022/04/04 14:17:58;;;;;;;18.43;16.73;;;3.70;1.00;;;;;;6288496;28;20741;-53
2022/04/04 14:21:02;;;;;;;18.87;16.97;;;3.80;1.00;;;;;;6286619;28;20469;-55
2022/04/04 14:24:05;;;;;;;16.93;15.23;;;3.70;1.00;;;;;;6295470;28;20267;-55
2022/04/04 14:27:08;;;;;;;16.77;15.17;;;3.50;1.00;;;;;;6289831;28;20249;-54
2022/04/04 14:30:12;;;;;;;17.90;16.10;;;3.60;1.00;;;;;;6285962;28;20312;-54
2022/04/04 14:33:16;;;;;;;19.10;17.10;;;3.70;1.00;;;;;;6288990;28;20379;-56
2022/04/04 14:36:19;;;;;;;18.67;16.93;;;3.60;1.00;;;;;;6282131;28;20238;-56
2022/04/04 14:39:22;;;;;;;18.93;16.93;;;3.50;1.00;;;;;;6297559;28;20722;-54
2022/04/04 14:42:25;;;;;;;18.93;16.93;;;3.60;1.00;;;;;;6298598;28;20336;-55
2022/04/04 14:45:28;;;;;;;19.33;17.27;;;3.50;1.00;;;;;;6285336;28;20255;-55
2022/04/04 14:48:32;;;;;;;20.17;17.50;;;3.50;1.00;;;;;;6286216;28;20275;-53
2022/04/04 14:51:34;;;;;;;19.43;17.53;;;3.30;1.00;;;;;;6287072;28;20880;-54
2022/04/04 14:54:37;;;;;;;20.00;16.97;;;3.30;1.00;;;;;;6289618;28;20643;-54
2022/04/04 14:57:42;;;;;;;20.77;18.40;;;3.40;1.00;;;;;;6289338;28;20718;-53
2022/04/04 15:00:45;;;;;;;19.93;17.93;;;3.40;1.00;;;;;;6296115;28;20237;-54
2022/04/04 15:03:49;;;;;;;20.67;18.30;;;3.30;1.00;;;;;;6286232;28;20294;-54
2022/04/04 15:06:52;;;;;;;22.07;19.77;;;3.20;1.00;;;;;;6291071;28;20363;-53
2022/04/04 15:09:54;;;;;;;21.90;19.60;;;3.30;1.00;;;;;;6292504;28;20716;-54
2022/04/04 15:12:57;;;;;;;22.03;19.73;;;3.60;1.00;;;;;;6290290;28;20241;-54
2022/04/04 15:16:00;;;;;;;23.23;20.73;;;3.40;1.00;;;;;;6282038;28;20268;-55
2022/04/04 15:19:24;;;;;;;22.30;20.20;;;3.30;1.00;;;;;;6286886;28;20347;-53
2022/04/04 15:22:27;;;;;;;21.73;19.43;;;3.40;1.00;;;;;;6293057;28;20302;-55
2022/04/04 15:25:29;;;;;;;22.70;20.40;;;3.60;1.00;;;;;;6282523;28;20229;-55
2022/04/04 15:28:33;;;;;;;23.37;20.03;;;3.40;1.00;;;;;;6297900;28;20237;-54
2022/04/04 15:31:36;;;;;;;22.47;20.37;;;3.50;1.00;;;;;;6298418;28;20229;-55
2022/04/04 15:34:40;;;;;;;23.83;21.33;;;3.60;1.00;;;;;;6288030;28;20237;-56
2022/04/04 15:37:44;;;;;;;23.50;21.03;;;3.40;1.00;;;;;;6288535;28;20233;-53
2022/04/04 15:40:48;;;;;;;22.40;20.07;;;3.40;1.00;;;;;;6288207;28;20319;-53
2022/04/04 15:43:53;;;;;;;23.03;20.63;;;3.70;1.00;;;;;;6294953;28;20397;-54
2022/04/04 15:46:56;;;;;;;23.10;20.80;;;3.70;1.00;;;;;;6282428;28;20589;-52
2022/04/04 15:50:00;;;;;;;21.47;19.17;;;3.60;1.00;;;;;;6295800;28;20233;-56
2022/04/04 15:53:03;;;;;;;22.73;20.50;;;3.30;1.00;;;;;;6287538;28;20317;-53
2022/04/04 15:56:06;;;;;;;22.60;20.40;;;3.60;1.00;;;;;;6287501;28;20294;-54
2022/04/04 15:59:13;;;;;;;22.00;19.87;;;3.50;1.00;;;;;;6290530;28;20318;-53
2022/04/04 16:02:16;;;;;;;24.03;21.43;;;3.60;1.00;;;;;;6298586;28;20240;-56
2022/04/04 16:05:20;;;;;;;23.10;20.90;;;3.10;1.00;;;;;;6283226;28;20609;-55
2022/04/04 16:08:23;;;;;;;22.60;20.43;;;3.40;1.00;;;;;;6294676;28;20324;-53
2022/04/04 16:11:27;;;;;;;24.37;21.87;;;3.50;1.00;;;;;;6280892;28;20479;-54
2022/04/04 16:14:30;;;;;;;22.67;20.47;;;3.50;1.00;;;;;;6287369;28;20997;-54
2022/04/04 16:17:32;;;;;;;22.17;19.93;;;3.70;1.00;;;;;;6290091;28;20411;-53